createdAt,value
2019-04-27T00:02:36.859Z,97857.33
2019-04-27T00:05:32.102Z,97855.16
2019-04-27T00:08:14.137Z,97852.78
2019-04-27T00:10:53.286Z,97848.22
2019-04-27T00:13:22.937Z,97849.55
2019-04-27T00:15:53.805Z,97853.55
2019-04-27T00:18:29.334Z,97842.09
2019-04-27T00:21:08.231Z,97846.15
2019-04-27T00:23:36.610Z,97848.33
2019-04-27T00:26:05.334Z,97847.77
2019-04-27T00:28:33.724Z,97837.05
2019-04-27T00:31:03.304Z,97839.30
2019-04-27T00:33:31.864Z,97839.62
2019-04-27T00:36:03.029Z,97839.39
2019-04-27T00:38:33.484Z,97827.13
2019-04-27T00:41:09.442Z,97825.80
2019-04-27T00:43:38.059Z,97821.33
2019-04-27T00:46:06.422Z,97821.20
2019-04-27T00:48:36.260Z,97818.54
2019-04-27T00:51:04.631Z,97814.27
2019-04-27T00:53:33.505Z,97816.76
2019-04-27T00:59:16.207Z,97804.90
2019-04-27T01:01:46.327Z,97799.84
2019-04-27T01:04:18.760Z,97793.88
2019-04-27T01:06:47.386Z,97792.60
2019-04-27T01:09:17.527Z,97789.86
2019-04-27T01:11:46.015Z,97789.04
2019-04-27T01:14:14.402Z,97785.27
2019-04-27T01:16:42.772Z,97789.00
2019-04-27T01:19:11.491Z,97793.82
2019-04-27T01:21:40.070Z,97785.48
2019-04-27T01:24:08.971Z,97788.97
2019-04-27T01:26:55.447Z,97787.09
2019-04-27T01:29:31.620Z,97789.78
2019-04-27T01:31:59.971Z,97781.77
2019-04-27T01:34:29.532Z,97782.88
2019-04-27T01:36:59.500Z,97778.84
2019-04-27T01:39:28.963Z,97782.13
2019-04-27T01:41:58.950Z,97776.77
2019-04-27T01:44:29.374Z,97787.52
2019-04-27T01:46:59.762Z,97779.48
2019-04-27T01:49:29.496Z,97784.34
2019-04-27T01:51:59.418Z,97777.95
2019-04-27T01:54:30.229Z,97787.34
2019-04-27T01:57:00.672Z,97783.31
2019-04-27T01:59:29.957Z,97784.41
2019-04-27T02:02:16.460Z,97779.88
2019-04-27T02:04:52.576Z,97780.20
2019-04-27T02:07:20.897Z,97781.84
2019-04-27T02:09:49.472Z,97783.18
2019-04-27T02:12:19.182Z,97779.17
2019-04-27T02:14:49.082Z,97781.38
2019-04-27T02:17:18.683Z,97783.25
2019-04-27T02:19:49.279Z,97781.12
2019-04-27T02:22:18.911Z,97788.64
2019-04-27T02:24:49.114Z,97787.36
2019-04-27T02:27:18.887Z,97796.77
2019-04-27T02:29:51.732Z,97797.31
2019-04-27T02:32:21.704Z,97793.88
2019-04-27T02:34:51.602Z,97793.08
2019-04-27T02:37:20.270Z,97791.75
2019-04-27T02:39:50.083Z,97792.08
2019-04-27T02:42:20.050Z,97791.84
2019-04-27T02:44:49.455Z,97795.34
2019-04-27T02:47:20.876Z,97784.36
2019-04-27T02:49:50.893Z,97782.25
2019-04-27T02:52:21.071Z,97786.54
2019-04-27T02:54:50.542Z,97787.34
2019-04-27T02:57:19.991Z,97789.72
2019-04-27T02:59:50.221Z,97791.06
2019-04-27T03:02:20.393Z,97788.38
2019-04-27T03:04:49.878Z,97783.82
2019-04-27T03:07:20.151Z,97780.88
2019-04-27T03:09:51.004Z,97784.89
2019-04-27T03:12:20.589Z,97786.77
2019-04-27T03:14:56.700Z,97786.23
2019-04-27T03:17:44.524Z,97784.63
2019-04-27T03:20:30.369Z,97780.07
2019-04-27T03:23:00.491Z,97780.34
2019-04-27T03:25:32.583Z,97774.71
2019-04-27T03:28:03.030Z,97776.85
2019-04-27T03:30:35.555Z,97772.56
2019-04-27T03:33:03.007Z,97774.17
2019-04-27T03:35:36.080Z,97771.23
2019-04-27T03:38:02.181Z,97769.13
2019-04-27T03:40:30.968Z,97762.97
2019-04-27T03:43:01.072Z,97766.45
2019-04-27T03:45:30.036Z,97761.67
2019-04-27T03:48:00.454Z,97760.87
2019-04-27T03:50:36.389Z,97767.83
2019-04-27T03:53:22.659Z,97767.03
2019-04-27T03:56:02.041Z,97766.22
2019-04-27T03:58:33.069Z,97771.31
2019-04-27T04:01:01.370Z,97768.36
2019-04-27T04:03:29.865Z,97763.55
2019-04-27T04:06:00.268Z,97761.67
2019-04-27T04:08:30.556Z,97773.72
2019-04-27T04:11:05.508Z,97774.79
2019-04-27T04:13:35.529Z,97778.23
2019-04-27T04:16:10.729Z,97774.76
2019-04-27T04:19:00.736Z,97780.95
2019-04-27T04:21:29.864Z,97777.73
2019-04-27T04:24:01.015Z,97773.21
2019-04-27T04:26:32.586Z,97770.53
2019-04-27T04:28:59.940Z,97774.81
2019-04-27T04:31:29.793Z,97770.80
2019-04-27T04:33:59.679Z,97778.83
2019-04-27T04:36:30.045Z,97773.74
2019-04-27T04:39:00.507Z,97781.52
2019-04-27T04:41:43.214Z,97784.19
2019-04-27T04:44:14.272Z,97772.64
2019-04-27T04:47:00.627Z,97783.09
2019-04-27T04:49:29.633Z,97777.70
2019-04-27T04:51:59.424Z,97774.48
2019-04-27T04:54:30.078Z,97776.39
2019-04-27T04:56:59.499Z,97776.39
2019-04-27T04:59:29.110Z,97780.68
2019-04-27T05:02:01.900Z,97782.28
2019-04-27T05:04:29.194Z,97783.66
2019-04-27T05:06:59.235Z,97784.69
2019-04-27T05:09:29.586Z,97787.10
2019-04-27T05:11:58.766Z,97782.82
2019-04-27T05:14:28.904Z,97784.39
2019-04-27T05:16:59.144Z,97782.97
2019-04-27T05:19:28.790Z,97790.40
2019-04-27T05:21:59.177Z,97776.92
2019-04-27T05:24:29.290Z,97772.28
2019-04-27T05:26:59.073Z,97768.51
2019-04-27T05:29:29.115Z,97769.50
2019-04-27T05:31:59.239Z,97774.50
2019-04-27T05:34:29.377Z,97763.94
2019-04-27T05:36:59.334Z,97776.89
2019-04-27T05:39:29.928Z,97770.49
2019-04-27T05:41:59.715Z,97769.47
2019-04-27T05:44:33.002Z,97764.71
2019-04-27T05:47:05.373Z,97759.44
2019-04-27T05:49:41.043Z,97761.69
2019-04-27T05:52:14.381Z,97762.66
2019-04-27T05:54:39.647Z,97767.73
2019-04-27T05:57:09.497Z,97765.53
2019-04-27T05:59:39.833Z,97761.47
2019-04-27T06:02:09.373Z,97763.42
2019-04-27T06:04:39.349Z,97765.05
2019-04-27T06:07:09.272Z,97760.80
2019-04-27T06:09:39.158Z,97757.41
2019-04-27T06:12:08.955Z,97759.80
2019-04-27T06:14:39.227Z,97761.02
2019-04-27T06:17:09.320Z,97750.95
2019-04-27T06:19:39.080Z,97753.31
2019-04-27T06:22:09.529Z,97748.44
2019-04-27T06:24:37.543Z,97747.16
2019-04-27T06:27:05.880Z,97742.98
2019-04-27T06:29:34.375Z,97741.88
2019-04-27T06:32:02.793Z,97737.85
2019-04-27T06:34:31.357Z,97743.77
2019-04-27T06:37:00.054Z,97736.80
2019-04-27T06:39:29.822Z,97739.75
2019-04-27T06:41:59.041Z,97743.50
2019-04-27T06:44:29.343Z,97744.73
2019-04-27T06:46:59.135Z,97742.31
2019-04-27T06:49:29.396Z,97741.41
2019-04-27T06:51:58.655Z,97732.11
2019-04-27T06:54:28.850Z,97738.41
2019-04-27T06:56:59.082Z,97732.46
2019-04-27T06:59:28.896Z,97741.16
2019-04-27T07:01:59.123Z,97740.45
2019-04-27T07:04:29.455Z,97738.13
2019-04-27T07:06:59.485Z,97734.63
2019-04-27T07:09:29.539Z,97738.50
2019-04-27T07:11:59.290Z,97738.55
2019-04-27T07:14:29.466Z,97735.71
2019-04-27T07:16:59.108Z,97742.42
2019-04-27T07:19:28.753Z,97737.19
2019-04-27T07:21:57.107Z,97740.81
2019-04-27T07:24:25.496Z,97742.33
2019-04-27T07:26:53.869Z,97741.19
2019-04-27T07:29:23.241Z,97742.17
2019-04-27T07:31:51.628Z,97748.54
2019-04-27T07:34:20.098Z,97742.95
2019-04-27T07:36:49.123Z,97738.02
2019-04-27T07:39:19.251Z,97729.59
2019-04-27T07:41:48.784Z,97724.06
2019-04-27T07:44:21.948Z,97731.56
2019-04-27T07:47:09.621Z,97732.03
2019-04-27T07:49:39.082Z,97734.61
2019-04-27T07:52:08.739Z,97736.58
2019-04-27T07:54:38.509Z,97732.71
2019-04-27T07:57:07.482Z,97735.63
2019-04-27T07:59:35.869Z,97737.34
2019-04-27T08:02:04.599Z,97736.05
2019-04-27T08:04:33.138Z,97734.71
2019-04-27T08:07:01.679Z,97730.55
2019-04-27T08:09:29.997Z,97725.04
2019-04-27T08:11:58.727Z,97731.30
2019-04-27T08:14:28.596Z,97727.38
2019-04-27T08:16:58.677Z,97717.75
2019-04-27T08:19:27.024Z,97721.49
2019-04-27T08:21:55.598Z,97709.30
2019-04-27T08:24:23.988Z,97712.59
2019-04-27T08:27:11.881Z,97715.37
2019-04-27T08:29:44.991Z,97716.20
2019-04-27T08:32:23.795Z,97712.14
2019-04-27T08:34:52.105Z,97711.95
2019-04-27T08:37:20.459Z,97714.94
2019-04-27T08:39:49.547Z,97705.42
2019-04-27T08:42:19.453Z,97702.25
2019-04-27T08:44:49.684Z,97702.57
2019-04-27T08:47:19.456Z,97701.44
2019-04-27T08:49:49.182Z,97699.37
2019-04-27T08:52:19.395Z,97710.77
2019-04-27T08:54:49.330Z,97708.06
2019-04-27T08:57:18.816Z,97703.05
2019-04-27T08:59:49.263Z,97701.13
2019-04-27T09:02:17.529Z,97709.09
2019-04-27T09:04:45.828Z,97698.00
2019-04-27T09:07:32.320Z,97706.02
2019-04-27T09:10:21.020Z,97698.48
2019-04-27T09:12:58.769Z,97694.25
2019-04-27T09:15:29.218Z,97689.95
2019-04-27T09:17:58.880Z,97694.49
2019-04-27T09:20:30.614Z,97691.55
2019-04-27T09:22:59.287Z,97697.31
2019-04-27T09:25:29.477Z,97698.77
2019-04-27T09:27:59.574Z,97685.16
2019-04-27T09:30:29.617Z,97697.31
2019-04-27T09:32:58.586Z,97682.77
2019-04-27T09:35:28.389Z,97685.27
2019-04-27T09:37:57.052Z,97679.87
2019-04-27T09:40:26.756Z,97685.10
2019-04-27T09:42:57.014Z,97686.34
2019-04-27T09:45:27.089Z,97688.55
2019-04-27T09:47:56.250Z,97697.06
2019-04-27T09:50:27.964Z,97686.87
2019-04-27T09:52:55.714Z,97677.50
2019-04-27T09:55:26.134Z,97686.41
2019-04-27T09:57:54.393Z,97684.55
2019-04-27T10:00:23.142Z,97683.86
2019-04-27T10:02:51.491Z,97686.03
2019-04-27T10:05:19.952Z,97680.43
2019-04-27T10:07:48.529Z,97686.19
2019-04-27T10:10:16.931Z,97676.86
2019-04-27T10:12:46.644Z,97680.94
2019-04-27T10:15:16.248Z,97674.17
2019-04-27T10:17:45.050Z,97677.67
2019-04-27T10:20:14.539Z,97660.66
2019-04-27T10:22:44.013Z,97673.77
2019-04-27T10:25:23.147Z,97667.50
2019-04-27T10:27:53.182Z,97665.59
2019-04-27T10:30:21.713Z,97665.38
2019-04-27T10:32:50.202Z,97663.09
2019-04-27T10:35:18.632Z,97655.95
2019-04-27T10:37:47.088Z,97659.22
2019-04-27T10:40:16.165Z,97652.34
2019-04-27T10:42:45.906Z,97656.02
2019-04-27T10:45:16.043Z,97672.60
2019-04-27T10:47:46.024Z,97650.95
2019-04-27T10:50:16.011Z,97653.59
2019-04-27T10:52:53.272Z,97653.84
2019-04-27T10:55:16.092Z,97655.68
2019-04-27T10:57:44.992Z,97658.45
2019-04-27T11:00:16.725Z,97655.27
2019-04-27T11:02:45.200Z,97646.87
2019-04-27T11:05:19.238Z,97640.37
2019-04-27T11:07:47.596Z,97644.48
2019-04-27T11:10:16.462Z,97644.42
2019-04-27T11:12:52.439Z,97639.28
2019-04-27T11:15:21.299Z,97643.38
2019-04-27T11:17:49.727Z,97651.29
2019-04-27T11:20:18.635Z,97645.31
2019-04-27T11:22:47.323Z,97651.56
2019-04-27T11:25:16.552Z,97650.45
2019-04-27T11:27:45.191Z,97647.41
2019-04-27T11:30:15.674Z,97647.68
2019-04-27T11:32:44.313Z,97638.34
2019-04-27T11:35:18.640Z,97650.30
2019-04-27T11:37:47.201Z,97640.61
2019-04-27T11:40:16.558Z,97643.18
2019-04-27T11:42:45.266Z,97636.84
2019-04-27T11:45:15.004Z,97634.12
2019-04-27T11:47:45.275Z,97636.98
2019-04-27T11:50:14.030Z,97639.22
2019-04-27T11:52:42.671Z,97631.67
2019-04-27T11:55:11.321Z,97628.74
2019-04-27T11:57:40.070Z,97628.81
2019-04-27T12:00:11.888Z,97633.35
2019-04-27T12:02:40.335Z,97630.34
2019-04-27T12:05:08.899Z,97629.71
2019-04-27T12:07:37.301Z,97624.50
2019-04-27T12:10:05.977Z,97619.02
2019-04-27T12:12:36.328Z,97609.98
2019-04-27T12:15:07.136Z,97612.02
2019-04-27T12:17:35.970Z,97611.12
2019-04-27T12:20:07.795Z,97615.55
2019-04-27T12:22:36.208Z,97628.48
2019-04-27T12:25:06.513Z,97623.39
2019-04-27T12:27:51.582Z,97623.39
2019-04-27T12:30:21.687Z,97627.33
2019-04-27T12:32:50.125Z,97618.62
2019-04-27T12:35:18.683Z,97621.23
2019-04-27T12:37:47.256Z,97617.61
2019-04-27T12:40:16.635Z,97612.40
2019-04-27T12:42:45.417Z,97611.53
2019-04-27T12:45:16.717Z,97609.69
2019-04-27T12:47:46.426Z,97604.28
2019-04-27T12:50:17.248Z,97600.33
2019-04-27T12:52:47.452Z,97594.30
2019-04-27T12:55:20.419Z,97591.80
2019-04-27T12:57:53.455Z,97592.25
2019-04-27T13:00:29.148Z,97583.27
2019-04-27T13:02:57.910Z,97578.04
2019-04-27T13:05:26.356Z,97580.60
2019-04-27T13:07:54.830Z,97575.94
2019-04-27T13:10:23.287Z,97566.73
2019-04-27T13:12:51.897Z,97571.72
2019-04-27T13:15:20.578Z,97570.55
2019-04-27T13:17:49.120Z,97561.95
2019-04-27T13:20:17.815Z,97559.17
2019-04-27T13:22:46.295Z,97552.25
2019-04-27T13:25:15.035Z,97540.42
2019-04-27T13:27:43.510Z,97534.16
2019-04-27T13:30:12.683Z,97532.02
2019-04-27T13:32:41.133Z,97523.94
2019-04-27T13:35:10.390Z,97517.69
2019-04-27T13:37:40.507Z,97501.94
2019-04-27T13:40:10.058Z,97500.72
2019-04-27T13:42:43.476Z,97505.94
2019-04-27T13:45:17.918Z,97500.20
2019-04-27T13:48:06.125Z,97498.16
2019-04-27T13:50:37.236Z,97501.84
2019-04-27T13:53:06.036Z,97490.42
2019-04-27T13:55:39.924Z,97489.23
2019-04-27T13:58:10.983Z,97480.21
2019-04-27T14:00:44.347Z,97470.09
2019-04-27T14:03:14.366Z,97472.09
2019-04-27T14:05:44.337Z,97464.66
2019-04-27T14:08:13.451Z,97469.52
2019-04-27T14:10:43.063Z,97462.91
2019-04-27T14:13:12.570Z,97466.73
2019-04-27T14:15:42.046Z,97469.44
2019-04-27T14:18:10.822Z,97468.01
2019-04-27T14:20:39.568Z,97466.99
2019-04-27T14:23:18.955Z,97475.12
2019-04-27T14:25:47.888Z,97476.25
2019-04-27T14:28:18.317Z,97484.42
2019-04-27T14:30:48.697Z,97478.12
2019-04-27T14:33:18.600Z,97480.44
2019-04-27T14:35:47.980Z,97477.87
2019-04-27T14:38:19.131Z,97472.64
2019-04-27T14:40:50.262Z,97479.23
2019-04-27T14:43:19.152Z,97474.86
2019-04-27T14:45:48.580Z,97474.57
2019-04-27T14:48:20.406Z,97472.88
2019-04-27T14:50:49.349Z,97490.53
2019-04-27T14:53:18.139Z,97497.49
2019-04-27T14:55:48.857Z,97530.47
2019-04-27T14:58:19.131Z,97550.20
2019-04-27T15:00:49.906Z,97554.05
2019-04-27T15:03:18.426Z,97549.70
2019-04-27T15:05:49.826Z,97551.79
2019-04-27T15:08:19.722Z,97556.47
2019-04-27T15:10:48.430Z,97554.48
2019-04-27T15:13:18.697Z,97562.92
2019-04-27T15:15:47.164Z,97568.19
2019-04-27T15:18:15.555Z,97570.10
2019-04-27T15:20:46.601Z,97580.88
2019-04-27T15:23:15.154Z,97591.05
2019-04-27T15:25:47.009Z,97594.08
2019-04-27T15:28:15.410Z,97602.73
2019-04-27T15:31:03.675Z,97611.31
2019-04-27T15:33:51.416Z,97621.66
2019-04-27T15:36:28.312Z,97630.08
2019-04-27T15:39:01.462Z,97624.80
2019-04-27T15:41:31.660Z,97619.91
2019-04-27T15:44:05.836Z,97614.91
2019-04-27T15:46:33.874Z,97600.86
2019-04-27T15:49:03.112Z,97606.55
2019-04-27T15:51:32.607Z,97616.14
2019-04-27T15:54:02.012Z,97627.56
2019-04-27T15:56:34.711Z,97624.86
2019-04-27T15:59:01.106Z,97644.59
2019-04-27T16:01:35.619Z,97644.34
2019-04-27T16:04:02.467Z,97659.53
2019-04-27T16:06:29.748Z,97667.30
2019-04-27T16:08:59.069Z,97670.00
2019-04-27T16:11:27.562Z,97680.62
2019-04-27T16:13:56.144Z,97681.61
2019-04-27T16:16:28.792Z,97668.44
2019-04-27T16:18:54.609Z,97667.31
2019-04-27T16:21:23.041Z,97677.11
2019-04-27T16:23:51.365Z,97670.84
2019-04-27T16:26:19.656Z,97669.83
2019-04-27T16:28:53.002Z,97671.35
2019-04-27T16:31:20.397Z,97666.23
2019-04-27T16:33:49.644Z,97662.84
2019-04-27T16:36:19.767Z,97652.33
2019-04-27T16:38:52.587Z,97646.78
2019-04-27T16:41:21.080Z,97646.04
2019-04-27T16:43:49.405Z,97649.32
2019-04-27T16:46:21.048Z,97642.72
2019-04-27T16:48:47.955Z,97647.72
2019-04-27T16:51:18.328Z,97647.17
2019-04-27T16:53:46.792Z,97656.92
2019-04-27T16:56:18.306Z,97656.91
2019-04-27T16:58:49.027Z,97656.20
2019-04-27T17:01:20.741Z,97659.70
2019-04-27T17:03:49.181Z,97663.28
2019-04-27T17:06:19.092Z,97668.94
2019-04-27T17:08:49.652Z,97668.64
2019-04-27T17:11:19.594Z,97667.27
2019-04-27T17:13:52.090Z,97669.37
2019-04-27T17:16:33.702Z,97672.76
2019-04-27T17:19:04.882Z,97665.23
2019-04-27T17:21:33.452Z,97665.69
2019-04-27T17:24:03.990Z,97670.47
2019-04-27T17:26:35.524Z,97674.23
2019-04-27T17:29:04.191Z,97685.80
2019-04-27T17:31:34.449Z,97701.15
2019-04-27T17:34:02.803Z,97712.53
2019-04-27T17:36:31.544Z,97720.16
2019-04-27T17:38:59.995Z,97720.91
2019-04-27T17:41:30.267Z,97727.00
2019-04-27T17:43:59.175Z,97722.34
2019-04-27T17:46:28.271Z,97717.75
2019-04-27T17:48:58.533Z,97713.67
2019-04-27T17:51:30.550Z,97717.75
2019-04-27T17:53:58.728Z,97716.97
2019-04-27T17:56:35.903Z,97712.40
2019-04-27T17:59:01.501Z,97721.75
2019-04-27T18:01:31.955Z,97726.56
2019-04-27T18:04:03.009Z,97729.84
2019-04-27T18:06:30.524Z,97733.80
2019-04-27T18:09:03.315Z,97740.80
2019-04-27T18:11:32.877Z,97746.39
2019-04-27T18:14:01.690Z,97755.30
2019-04-27T18:16:34.316Z,97763.89
2019-04-27T18:19:07.792Z,97774.23
2019-04-27T18:21:38.544Z,97793.23
2019-04-27T18:24:08.738Z,97798.27
2019-04-27T18:26:49.555Z,97802.88
2019-04-27T18:29:13.138Z,97804.86
2019-04-27T18:31:46.330Z,97810.97
2019-04-27T18:34:17.379Z,97818.08
2019-04-27T18:36:50.596Z,97826.22
2019-04-27T18:39:21.307Z,97825.95
2019-04-27T18:41:54.093Z,97811.42
2019-04-27T18:44:24.064Z,97809.91
2019-04-27T18:46:58.149Z,97818.05
2019-04-27T18:49:38.767Z,97817.06
2019-04-27T18:52:10.639Z,97825.41
2019-04-27T18:54:42.173Z,97824.94
2019-04-27T18:57:15.291Z,97834.61
2019-04-27T18:59:44.795Z,97833.27
2019-04-27T19:02:14.233Z,97837.03
2019-04-27T19:04:43.388Z,97846.45
2019-04-27T19:07:13.229Z,97855.59
2019-04-27T19:09:43.109Z,97862.23
2019-04-27T19:12:12.786Z,97872.42
2019-04-27T19:14:42.840Z,97877.47
2019-04-27T19:17:11.731Z,97872.61
2019-04-27T19:19:40.963Z,97887.36
2019-04-27T19:22:10.447Z,97890.80
2019-04-27T19:24:41.697Z,97895.14
2019-04-27T19:27:29.759Z,97890.80
2019-04-27T19:30:01.232Z,97903.14
2019-04-27T19:32:29.892Z,97916.63
2019-04-27T19:34:59.315Z,97923.88
2019-04-27T19:37:28.659Z,97920.72
2019-04-27T19:39:58.355Z,97920.53
2019-04-27T19:42:28.565Z,97933.95
2019-04-27T19:44:57.129Z,97963.46
2019-04-27T19:47:25.770Z,97972.09
2019-04-27T19:49:54.839Z,97987.16
2019-04-27T19:52:23.851Z,97983.69
2019-04-27T19:54:52.266Z,97977.23
2019-04-27T19:57:32.691Z,97971.02
2019-04-27T19:59:55.193Z,97958.64
2019-04-27T20:02:24.459Z,97953.97
2019-04-27T20:04:58.893Z,97933.50
2019-04-27T20:07:28.588Z,97934.50
2019-04-27T20:09:59.087Z,97937.13
2019-04-27T20:12:28.310Z,97936.88
2019-04-27T20:14:56.771Z,97927.70
2019-04-27T20:17:31.188Z,97931.78
2019-04-27T20:19:59.952Z,97936.28
2019-04-27T20:22:28.752Z,97949.63
2019-04-27T20:24:57.300Z,97957.17
2019-04-27T20:27:25.702Z,97947.30
2019-04-27T20:29:54.338Z,97954.27
2019-04-27T20:32:22.963Z,97960.48
2019-04-27T20:34:51.490Z,97958.35
2019-04-27T20:37:21.044Z,97968.77
2019-04-27T20:39:51.254Z,97978.97
2019-04-27T20:42:21.104Z,97985.96
2019-04-27T20:44:51.411Z,97992.91
2019-04-27T20:47:19.947Z,98005.41
2019-04-27T20:49:48.554Z,98010.50
2019-04-27T20:52:30.827Z,98011.95
2019-04-27T20:55:01.506Z,98013.58
2019-04-27T20:57:31.680Z,98004.22
2019-04-27T21:00:01.929Z,98004.22
2019-04-27T21:02:32.240Z,97980.10
2019-04-27T21:05:21.139Z,97980.10
2019-04-27T21:07:54.358Z,97964.86
2019-04-27T21:10:22.690Z,97975.75
2019-04-27T21:12:51.893Z,97979.73
2019-04-27T21:15:21.374Z,97979.73
2019-04-27T21:17:51.208Z,97989.41
2019-04-27T21:20:21.883Z,97991.80
2019-04-27T21:22:53.175Z,97999.55
2019-04-27T21:25:20.552Z,98001.49
2019-04-27T21:27:48.949Z,98001.49
2019-04-27T21:30:17.376Z,98017.11
2019-04-27T21:32:46.179Z,98020.43
2019-04-27T21:35:14.718Z,98020.43
2019-04-27T21:37:43.313Z,98008.96
2019-04-27T21:40:13.390Z,98011.41
2019-04-27T21:42:41.927Z,98008.89
2019-04-27T21:45:11.269Z,98021.23
2019-04-27T21:47:41.360Z,98025.27
2019-04-27T21:50:12.083Z,98032.33
2019-04-27T21:52:48.534Z,98032.33
2019-04-27T21:55:18.563Z,98024.64
2019-04-27T21:57:46.981Z,98042.86
2019-04-27T22:00:23.065Z,98042.86
2019-04-27T22:02:51.518Z,98049.78
2019-04-27T22:05:21.043Z,98044.41
2019-04-27T22:07:49.543Z,98044.41
2019-04-27T22:10:18.210Z,98051.15
2019-04-27T22:12:46.642Z,98055.19
2019-04-27T22:15:15.058Z,98050.40
2019-04-27T22:17:43.407Z,98050.17
2019-04-27T22:20:12.208Z,98047.03
2019-04-27T22:22:42.199Z,98050.25
2019-04-27T22:25:12.079Z,98051.03
2019-04-27T22:27:41.342Z,98055.05
2019-04-27T22:30:11.002Z,98052.40
2019-04-27T22:32:41.330Z,98040.13
2019-04-27T22:35:09.626Z,98042.34
2019-04-27T22:37:38.244Z,98026.71
2019-04-27T22:40:18.397Z,98026.71
2019-04-27T22:43:06.616Z,98039.31
2019-04-27T22:45:36.900Z,98048.84
2019-04-27T22:48:05.272Z,98038.38
2019-04-27T22:50:33.673Z,98040.27
2019-04-27T22:53:02.049Z,98051.28
2019-04-27T22:55:31.040Z,98052.37
2019-04-27T22:58:13.309Z,98050.92
2019-04-27T23:00:46.292Z,98063.11
2019-04-27T23:03:16.307Z,98066.55
2019-04-27T23:05:44.656Z,98073.73
2019-04-27T23:08:13.018Z,98066.72
2019-04-27T23:10:41.417Z,98060.07
2019-04-27T23:13:11.271Z,98057.93
2019-04-27T23:15:41.340Z,98057.93
2019-04-27T23:18:10.065Z,98057.93
2019-04-27T23:20:38.651Z,98056.78
2019-04-27T23:23:07.114Z,98040.77
2019-04-27T23:25:35.445Z,98040.77
2019-04-27T23:28:03.740Z,98054.11
2019-04-27T23:30:36.711Z,98043.06
2019-04-27T23:33:05.161Z,98032.05
2019-04-27T23:35:33.606Z,98019.32
2019-04-27T23:38:14.409Z,98021.80
2019-04-27T23:40:32.126Z,98021.83
2019-04-27T23:43:01.550Z,98032.01
2019-04-27T23:45:31.693Z,98032.01
2019-04-27T23:48:00.246Z,98034.27
2019-04-27T23:50:31.362Z,98034.27
2019-04-27T23:53:04.482Z,98034.52
2019-04-27T23:55:34.483Z,98033.04
2019-04-27T23:58:02.911Z,98036.55
